sensor_id;sensor_type;location;lat;lon;timestamp;P1;durP1;ratioP1;P2;durP2;ratioP2
37559;SDS011;23398;50.928;7.084;2022-09-03T00:00:48;1.38;;;1.10;;
37559;SDS011;23398;50.928;7.084;2022-09-03T00:03:28;2.60;;;1.00;;
37559;SDS011;23398;50.928;7.084;2022-09-03T00:06:15;1.55;;;1.20;;
37559;SDS011;23398;50.928;7.084;2022-09-03T00:08:50;1.77;;;0.80;;
37559;SDS011;23398;50.928;7.084;2022-09-03T00:11:18;2.10;;;0.90;;
37559;SDS011;23398;50.928;7.084;2022-09-03T00:16:32;1.20;;;0.90;;
37559;SDS011;23398;50.928;7.084;2022-09-03T00:19:15;1.13;;;0.90;;
37559;SDS011;23398;50.928;7.084;2022-09-03T00:21:46;2.22;;;1.10;;
37559;SDS011;23398;50.928;7.084;2022-09-03T00:24:18;1.05;;;0.98;;
37559;SDS011;23398;50.928;7.084;2022-09-03T00:26:49;2.97;;;1.17;;
37559;SDS011;23398;50.928;7.084;2022-09-03T00:29:19;1.10;;;1.00;;
37559;SDS011;23398;50.928;7.084;2022-09-03T00:31:53;1.52;;;0.98;;
37559;SDS011;23398;50.928;7.084;2022-09-03T00:34:23;1.15;;;0.95;;
37559;SDS011;23398;50.928;7.084;2022-09-03T00:36:54;1.60;;;0.80;;
37559;SDS011;23398;50.928;7.084;2022-09-03T00:39:21;1.38;;;1.08;;
37559;SDS011;23398;50.928;7.084;2022-09-03T00:41:55;2.13;;;1.00;;
37559;SDS011;23398;50.928;7.084;2022-09-03T00:47:05;4.13;;;0.90;;
37559;SDS011;23398;50.928;7.084;2022-09-03T01:00:12;1.48;;;1.00;;
37559;SDS011;23398;50.928;7.084;2022-09-03T01:05:25;1.98;;;0.95;;
37559;SDS011;23398;50.928;7.084;2022-09-03T01:10:58;1.08;;;0.90;;
37559;SDS011;23398;50.928;7.084;2022-09-03T01:24:59;0.98;;;0.90;;
37559;SDS011;23398;50.928;7.084;2022-09-03T01:28:05;1.40;;;0.90;;
37559;SDS011;23398;50.928;7.084;2022-09-03T01:30:44;1.10;;;0.93;;
37559;SDS011;23398;50.928;7.084;2022-09-03T01:33:34;1.05;;;0.95;;
37559;SDS011;23398;50.928;7.084;2022-09-03T01:38:32;1.35;;;1.00;;
37559;SDS011;23398;50.928;7.084;2022-09-03T01:44:32;1.50;;;0.90;;
37559;SDS011;23398;50.928;7.084;2022-09-03T01:50:22;1.33;;;1.00;;
37559;SDS011;23398;50.928;7.084;2022-09-03T01:53:06;0.90;;;0.90;;
37559;SDS011;23398;50.928;7.084;2022-09-03T01:55:55;1.98;;;0.98;;
37559;SDS011;23398;50.928;7.084;2022-09-03T01:58:36;0.80;;;0.80;;
37559;SDS011;23398;50.928;7.084;2022-09-03T02:01:16;0.90;;;0.90;;
37559;SDS011;23398;50.928;7.084;2022-09-03T02:03:47;1.10;;;1.00;;
37559;SDS011;23398;50.928;7.084;2022-09-03T02:06:14;2.35;;;0.90;;
37559;SDS011;23398;50.928;7.084;2022-09-03T02:08:42;1.40;;;1.10;;
37559;SDS011;23398;50.928;7.084;2022-09-03T02:11:08;0.95;;;0.88;;
37559;SDS011;23398;50.928;7.084;2022-09-03T02:13:38;1.13;;;1.00;;
37559;SDS011;23398;50.928;7.084;2022-09-03T02:16:13;1.00;;;0.90;;
37559;SDS011;23398;50.928;7.084;2022-09-03T02:18:45;1.20;;;1.00;;
37559;SDS011;23398;50.928;7.084;2022-09-03T02:21:15;0.90;;;0.90;;
37559;SDS011;23398;50.928;7.084;2022-09-03T02:23:44;1.17;;;0.90;;
37559;SDS011;23398;50.928;7.084;2022-09-03T02:26:10;0.80;;;0.80;;
37559;SDS011;23398;50.928;7.084;2022-09-03T02:28:38;1.92;;;0.80;;
37559;SDS011;23398;50.928;7.084;2022-09-03T02:31:04;1.00;;;0.90;;
37559;SDS011;23398;50.928;7.084;2022-09-03T02:33:35;0.80;;;0.80;;
37559;SDS011;23398;50.928;7.084;2022-09-03T02:36:04;1.02;;;0.93;;
37559;SDS011;23398;50.928;7.084;2022-09-03T02:38:32;1.27;;;0.90;;
37559;SDS011;23398;50.928;7.084;2022-09-03T02:40:58;0.90;;;0.80;;
37559;SDS011;23398;50.928;7.084;2022-09-03T02:43:30;1.17;;;1.00;;
37559;SDS011;23398;50.928;7.084;2022-09-03T02:46:16;1.20;;;0.90;;
37559;SDS011;23398;50.928;7.084;2022-09-03T02:48:47;1.15;;;0.80;;
37559;SDS011;23398;50.928;7.084;2022-09-03T02:51:13;1.00;;;0.80;;
37559;SDS011;23398;50.928;7.084;2022-09-03T02:53:38;1.27;;;0.90;;
37559;SDS011;23398;50.928;7.084;2022-09-03T02:56:04;0.93;;;0.80;;
37559;SDS011;23398;50.928;7.084;2022-09-03T02:58:30;1.17;;;1.08;;
37559;SDS011;23398;50.928;7.084;2022-09-03T03:00:56;0.90;;;0.80;;
37559;SDS011;23398;50.928;7.084;2022-09-03T03:03:22;1.10;;;0.90;;
37559;SDS011;23398;50.928;7.084;2022-09-03T03:08:15;1.83;;;0.93;;
37559;SDS011;23398;50.928;7.084;2022-09-03T03:10:45;1.63;;;1.00;;
37559;SDS011;23398;50.928;7.084;2022-09-03T03:13:11;1.10;;;0.98;;
37559;SDS011;23398;50.928;7.084;2022-09-03T03:15:37;1.00;;;0.90;;
37559;SDS011;23398;50.928;7.084;2022-09-03T03:18:03;1.30;;;1.00;;
37559;SDS011;23398;50.928;7.084;2022-09-03T03:20:28;1.50;;;0.98;;
37559;SDS011;23398;50.928;7.084;2022-09-03T03:22:54;1.08;;;0.90;;
37559;SDS011;23398;50.928;7.084;2022-09-03T03:25:20;0.77;;;0.77;;
37559;SDS011;23398;50.928;7.084;2022-09-03T03:27:45;2.55;;;0.95;;
37559;SDS011;23398;50.928;7.084;2022-09-03T03:30:11;1.38;;;0.98;;
37559;SDS011;23398;50.928;7.084;2022-09-03T03:32:37;1.92;;;0.85;;
37559;SDS011;23398;50.928;7.084;2022-09-03T03:35:03;1.00;;;0.90;;
37559;SDS011;23398;50.928;7.084;2022-09-03T03:37:30;1.05;;;1.00;;
37559;SDS011;23398;50.928;7.084;2022-09-03T03:39:57;1.55;;;0.90;;
37559;SDS011;23398;50.928;7.084;2022-09-03T03:42:23;1.35;;;1.10;;
37559;SDS011;23398;50.928;7.084;2022-09-03T03:44:48;2.42;;;1.00;;
37559;SDS011;23398;50.928;7.084;2022-09-03T03:47:14;1.88;;;1.10;;
37559;SDS011;23398;50.928;7.084;2022-09-03T03:49:41;1.48;;;1.00;;
37559;SDS011;23398;50.928;7.084;2022-09-03T03:52:08;2.08;;;0.90;;
37559;SDS011;23398;50.928;7.084;2022-09-03T03:54:33;1.85;;;1.00;;
37559;SDS011;23398;50.928;7.084;2022-09-03T03:56:59;0.70;;;0.70;;
37559;SDS011;23398;50.928;7.084;2022-09-03T03:59:24;0.80;;;0.80;;
37559;SDS011;23398;50.928;7.084;2022-09-03T04:01:50;1.45;;;1.00;;
37559;SDS011;23398;50.928;7.084;2022-09-03T04:04:18;1.08;;;0.98;;
37559;SDS011;23398;50.928;7.084;2022-09-03T04:06:44;1.08;;;0.95;;
37559;SDS011;23398;50.928;7.084;2022-09-03T04:09:10;0.98;;;0.82;;
37559;SDS011;23398;50.928;7.084;2022-09-03T04:11:35;1.40;;;0.90;;
37559;SDS011;23398;50.928;7.084;2022-09-03T04:14:01;1.42;;;0.98;;
37559;SDS011;23398;50.928;7.084;2022-09-03T04:16:26;2.95;;;1.15;;
37559;SDS011;23398;50.928;7.084;2022-09-03T04:18:53;1.25;;;1.08;;
37559;SDS011;23398;50.928;7.084;2022-09-03T04:21:21;0.80;;;0.80;;
37559;SDS011;23398;50.928;7.084;2022-09-03T04:23:51;1.10;;;1.00;;
37559;SDS011;23398;50.928;7.084;2022-09-03T04:26:18;1.65;;;1.02;;
37559;SDS011;23398;50.928;7.084;2022-09-03T04:28:46;0.90;;;0.77;;
37559;SDS011;23398;50.928;7.084;2022-09-03T04:31:13;1.33;;;0.88;;
37559;SDS011;23398;50.928;7.084;2022-09-03T04:33:42;1.40;;;0.90;;
37559;SDS011;23398;50.928;7.084;2022-09-03T04:36:14;0.80;;;0.80;;
37559;SDS011;23398;50.928;7.084;2022-09-03T04:38:45;0.93;;;0.82;;
37559;SDS011;23398;50.928;7.084;2022-09-03T04:41:13;1.17;;;0.90;;
37559;SDS011;23398;50.928;7.084;2022-09-03T04:43:40;1.92;;;0.90;;
37559;SDS011;23398;50.928;7.084;2022-09-03T04:46:07;1.13;;;1.02;;
37559;SDS011;23398;50.928;7.084;2022-09-03T04:48:34;2.65;;;1.27;;
37559;SDS011;23398;50.928;7.084;2022-09-03T04:51:02;1.58;;;1.00;;
37559;SDS011;23398;50.928;7.084;2022-09-03T04:53:33;1.30;;;0.90;;
37559;SDS011;23398;50.928;7.084;2022-09-03T04:56:01;1.10;;;1.00;;
37559;SDS011;23398;50.928;7.084;2022-09-03T04:58:27;1.58;;;1.00;;
37559;SDS011;23398;50.928;7.084;2022-09-03T05:00:52;0.98;;;0.88;;
37559;SDS011;23398;50.928;7.084;2022-09-03T05:03:18;2.28;;;1.00;;
37559;SDS011;23398;50.928;7.084;2022-09-03T05:05:55;1.35;;;1.10;;
37559;SDS011;23398;50.928;7.084;2022-09-03T05:08:21;2.50;;;0.90;;
37559;SDS011;23398;50.928;7.084;2022-09-03T05:10:47;1.45;;;0.80;;
37559;SDS011;23398;50.928;7.084;2022-09-03T05:13:13;0.95;;;0.85;;
37559;SDS011;23398;50.928;7.084;2022-09-03T05:15:39;1.33;;;1.00;;
37559;SDS011;23398;50.928;7.084;2022-09-03T05:18:06;1.00;;;0.90;;
37559;SDS011;23398;50.928;7.084;2022-09-03T05:20:31;1.00;;;0.90;;
37559;SDS011;23398;50.928;7.084;2022-09-03T05:23:00;0.80;;;0.80;;
37559;SDS011;23398;50.928;7.084;2022-09-03T05:25:27;0.80;;;0.80;;
37559;SDS011;23398;50.928;7.084;2022-09-03T05:27:56;1.27;;;1.08;;
37559;SDS011;23398;50.928;7.084;2022-09-03T05:30:22;1.50;;;0.77;;
37559;SDS011;23398;50.928;7.084;2022-09-03T05:32:48;2.20;;;0.90;;
37559;SDS011;23398;50.928;7.084;2022-09-03T05:35:14;0.80;;;0.80;;
37559;SDS011;23398;50.928;7.084;2022-09-03T05:37:39;1.60;;;0.90;;
37559;SDS011;23398;50.928;7.084;2022-09-03T05:40:05;1.13;;;1.00;;
37559;SDS011;23398;50.928;7.084;2022-09-03T05:42:32;0.90;;;0.80;;
37559;SDS011;23398;50.928;7.084;2022-09-03T05:45:01;0.98;;;0.90;;
37559;SDS011;23398;50.928;7.084;2022-09-03T05:47:37;1.02;;;0.90;;
37559;SDS011;23398;50.928;7.084;2022-09-03T05:50:03;1.20;;;1.00;;
37559;SDS011;23398;50.928;7.084;2022-09-03T05:52:30;1.48;;;0.90;;
37559;SDS011;23398;50.928;7.084;2022-09-03T05:54:56;1.80;;;1.00;;
37559;SDS011;23398;50.928;7.084;2022-09-03T05:57:21;1.20;;;0.80;;
37559;SDS011;23398;50.928;7.084;2022-09-03T05:59:47;1.00;;;0.88;;
37559;SDS011;23398;50.928;7.084;2022-09-03T06:02:12;1.05;;;0.95;;
37559;SDS011;23398;50.928;7.084;2022-09-03T06:04:38;1.65;;;0.90;;
37559;SDS011;23398;50.928;7.084;2022-09-03T06:07:03;0.70;;;0.70;;
37559;SDS011;23398;50.928;7.084;2022-09-03T06:09:29;2.65;;;1.05;;
37559;SDS011;23398;50.928;7.084;2022-09-03T06:11:54;0.98;;;0.90;;
37559;SDS011;23398;50.928;7.084;2022-09-03T06:14:20;3.00;;;1.20;;
37559;SDS011;23398;50.928;7.084;2022-09-03T06:16:47;1.10;;;1.00;;
37559;SDS011;23398;50.928;7.084;2022-09-03T06:19:16;1.10;;;1.00;;
37559;SDS011;23398;50.928;7.084;2022-09-03T06:21:42;2.00;;;0.90;;
37559;SDS011;23398;50.928;7.084;2022-09-03T06:24:09;1.00;;;0.90;;
37559;SDS011;23398;50.928;7.084;2022-09-03T06:26:36;1.15;;;0.93;;
37559;SDS011;23398;50.928;7.084;2022-09-03T06:29:02;1.65;;;0.93;;
37559;SDS011;23398;50.928;7.084;2022-09-03T06:31:28;1.20;;;1.00;;
37559;SDS011;23398;50.928;7.084;2022-09-03T06:33:54;1.10;;;1.00;;
37559;SDS011;23398;50.928;7.084;2022-09-03T06:36:20;2.22;;;1.00;;
37559;SDS011;23398;50.928;7.084;2022-09-03T06:38:49;0.95;;;0.80;;
37559;SDS011;23398;50.928;7.084;2022-09-03T06:41:17;1.38;;;0.90;;
37559;SDS011;23398;50.928;7.084;2022-09-03T06:43:45;1.15;;;0.98;;
37559;SDS011;23398;50.928;7.084;2022-09-03T06:46:12;3.95;;;1.00;;
37559;SDS011;23398;50.928;7.084;2022-09-03T06:48:39;2.00;;;0.90;;
37559;SDS011;23398;50.928;7.084;2022-09-03T06:51:12;1.45;;;0.95;;
37559;SDS011;23398;50.928;7.084;2022-09-03T06:53:40;1.02;;;0.93;;
37559;SDS011;23398;50.928;7.084;2022-09-03T06:56:08;1.38;;;0.90;;
37559;SDS011;23398;50.928;7.084;2022-09-03T06:58:45;1.27;;;1.00;;
37559;SDS011;23398;50.928;7.084;2022-09-03T07:03:43;1.38;;;1.10;;
37559;SDS011;23398;50.928;7.084;2022-09-03T07:08:40;2.63;;;1.00;;
37559;SDS011;23398;50.928;7.084;2022-09-03T07:11:08;1.13;;;1.00;;
37559;SDS011;23398;50.928;7.084;2022-09-03T07:13:36;1.15;;;0.90;;
37559;SDS011;23398;50.928;7.084;2022-09-03T07:16:05;1.08;;;1.00;;
37559;SDS011;23398;50.928;7.084;2022-09-03T07:18:33;1.20;;;1.00;;
37559;SDS011;23398;50.928;7.084;2022-09-03T07:21:00;2.50;;;1.25;;
37559;SDS011;23398;50.928;7.084;2022-09-03T07:23:27;1.13;;;0.90;;
37559;SDS011;23398;50.928;7.084;2022-09-03T07:25:58;0.88;;;0.82;;
37559;SDS011;23398;50.928;7.084;2022-09-03T07:28:25;1.00;;;0.90;;
37559;SDS011;23398;50.928;7.084;2022-09-03T07:30:52;1.48;;;1.10;;
37559;SDS011;23398;50.928;7.084;2022-09-03T07:33:19;1.48;;;0.90;;
37559;SDS011;23398;50.928;7.084;2022-09-03T07:35:45;1.10;;;1.00;;
37559;SDS011;23398;50.928;7.084;2022-09-03T07:38:15;0.82;;;0.80;;
37559;SDS011;23398;50.928;7.084;2022-09-03T07:40:43;1.33;;;1.00;;
37559;SDS011;23398;50.928;7.084;2022-09-03T07:43:08;2.08;;;1.00;;
37559;SDS011;23398;50.928;7.084;2022-09-03T07:45:34;1.15;;;1.00;;
37559;SDS011;23398;50.928;7.084;2022-09-03T07:48:02;1.10;;;1.00;;
37559;SDS011;23398;50.928;7.084;2022-09-03T07:50:27;1.00;;;0.90;;
37559;SDS011;23398;50.928;7.084;2022-09-03T07:52:56;1.67;;;1.10;;
37559;SDS011;23398;50.928;7.084;2022-09-03T07:55:23;1.52;;;0.90;;
37559;SDS011;23398;50.928;7.084;2022-09-03T07:57:49;1.10;;;0.93;;
37559;SDS011;23398;50.928;7.084;2022-09-03T08:00:19;1.35;;;0.90;;
37559;SDS011;23398;50.928;7.084;2022-09-03T08:02:44;6.60;;;1.10;;
37559;SDS011;23398;50.928;7.084;2022-09-03T08:05:10;2.08;;;0.90;;
37559;SDS011;23398;50.928;7.084;2022-09-03T08:07:35;1.60;;;0.90;;
37559;SDS011;23398;50.928;7.084;2022-09-03T08:10:01;0.98;;;0.93;;
37559;SDS011;23398;50.928;7.084;2022-09-03T08:12:27;1.35;;;1.10;;
37559;SDS011;23398;50.928;7.084;2022-09-03T08:14:53;1.20;;;0.85;;
37559;SDS011;23398;50.928;7.084;2022-09-03T08:17:18;0.90;;;0.90;;
37559;SDS011;23398;50.928;7.084;2022-09-03T08:19:44;0.95;;;0.93;;
37559;SDS011;23398;50.928;7.084;2022-09-03T08:22:10;0.82;;;0.80;;
37559;SDS011;23398;50.928;7.084;2022-09-03T08:24:35;2.20;;;1.00;;
37559;SDS011;23398;50.928;7.084;2022-09-03T08:27:01;1.00;;;0.90;;
37559;SDS011;23398;50.928;7.084;2022-09-03T08:29:27;1.15;;;0.90;;
37559;SDS011;23398;50.928;7.084;2022-09-03T08:31:53;1.10;;;1.00;;
37559;SDS011;23398;50.928;7.084;2022-09-03T08:34:18;1.30;;;1.00;;
37559;SDS011;23398;50.928;7.084;2022-09-03T08:36:44;0.90;;;0.90;;
37559;SDS011;23398;50.928;7.084;2022-09-03T08:39:11;1.00;;;0.90;;
37559;SDS011;23398;50.928;7.084;2022-09-03T08:50:00;1.70;;;1.10;;
37559;SDS011;23398;50.928;7.084;2022-09-03T08:55:27;2.50;;;1.00;;
37559;SDS011;23398;50.928;7.084;2022-09-03T09:00:49;1.17;;;1.00;;
37559;SDS011;23398;50.928;7.084;2022-09-03T09:09:21;1.20;;;1.05;;
37559;SDS011;23398;50.928;7.084;2022-09-03T09:14:55;1.23;;;1.10;;
37559;SDS011;23398;50.928;7.084;2022-09-03T09:22:53;1.92;;;1.00;;
37559;SDS011;23398;50.928;7.084;2022-09-03T09:25:27;1.23;;;1.00;;
37559;SDS011;23398;50.928;7.084;2022-09-03T09:27:59;1.20;;;1.05;;
37559;SDS011;23398;50.928;7.084;2022-09-03T09:30:32;1.40;;;1.00;;
37559;SDS011;23398;50.928;7.084;2022-09-03T09:32:58;1.40;;;1.10;;
37559;SDS011;23398;50.928;7.084;2022-09-03T09:35:24;1.63;;;1.20;;
37559;SDS011;23398;50.928;7.084;2022-09-03T09:37:56;1.10;;;1.00;;
37559;SDS011;23398;50.928;7.084;2022-09-03T09:40:31;2.25;;;1.23;;
37559;SDS011;23398;50.928;7.084;2022-09-03T09:45:46;1.15;;;1.00;;
37559;SDS011;23398;50.928;7.084;2022-09-03T09:48:26;1.20;;;1.10;;
37559;SDS011;23398;50.928;7.084;2022-09-03T09:53:37;1.40;;;1.10;;
37559;SDS011;23398;50.928;7.084;2022-09-03T09:56:03;3.05;;;1.15;;
37559;SDS011;23398;50.928;7.084;2022-09-03T09:58:30;1.30;;;1.20;;
37559;SDS011;23398;50.928;7.084;2022-09-03T10:01:01;2.33;;;1.10;;
37559;SDS011;23398;50.928;7.084;2022-09-03T10:03:38;1.23;;;1.10;;
37559;SDS011;23398;50.928;7.084;2022-09-03T10:06:12;1.40;;;1.20;;
37559;SDS011;23398;50.928;7.084;2022-09-03T10:09:05;2.95;;;1.30;;
37559;SDS011;23398;50.928;7.084;2022-09-03T10:11:31;1.20;;;1.10;;
37559;SDS011;23398;50.928;7.084;2022-09-03T10:14:00;1.15;;;1.00;;
37559;SDS011;23398;50.928;7.084;2022-09-03T10:16:30;1.30;;;1.10;;
37559;SDS011;23398;50.928;7.084;2022-09-03T10:26:45;2.47;;;1.20;;
37559;SDS011;23398;50.928;7.084;2022-09-03T10:29:11;1.90;;;1.10;;
37559;SDS011;23398;50.928;7.084;2022-09-03T10:34:38;2.38;;;1.02;;
37559;SDS011;23398;50.928;7.084;2022-09-03T10:37:37;1.10;;;1.00;;
37559;SDS011;23398;50.928;7.084;2022-09-03T10:46:02;1.88;;;0.95;;
37559;SDS011;23398;50.928;7.084;2022-09-03T10:51:18;1.42;;;1.30;;
37559;SDS011;23398;50.928;7.084;2022-09-03T11:07:16;1.10;;;1.00;;
37559;SDS011;23398;50.928;7.084;2022-09-03T11:09:56;1.35;;;1.23;;
37559;SDS011;23398;50.928;7.084;2022-09-03T11:12:39;2.30;;;1.20;;
37559;SDS011;23398;50.928;7.084;2022-09-03T11:15:27;1.65;;;1.45;;
37559;SDS011;23398;50.928;7.084;2022-09-03T11:18:00;1.42;;;1.33;;
37559;SDS011;23398;50.928;7.084;2022-09-03T11:20:46;2.40;;;1.38;;
37559;SDS011;23398;50.928;7.084;2022-09-03T11:23:14;1.73;;;1.20;;
37559;SDS011;23398;50.928;7.084;2022-09-03T11:25:46;1.40;;;1.30;;
37559;SDS011;23398;50.928;7.084;2022-09-03T11:34:13;1.35;;;1.25;;
37559;SDS011;23398;50.928;7.084;2022-09-03T11:36:39;1.77;;;1.10;;
37559;SDS011;23398;50.928;7.084;2022-09-03T11:39:12;1.75;;;1.25;;
37559;SDS011;23398;50.928;7.084;2022-09-03T11:41:42;1.85;;;1.50;;
37559;SDS011;23398;50.928;7.084;2022-09-03T11:44:17;1.50;;;1.30;;
37559;SDS011;23398;50.928;7.084;2022-09-03T11:46:54;1.50;;;1.38;;
37559;SDS011;23398;50.928;7.084;2022-09-03T11:49:25;1.95;;;1.27;;
37559;SDS011;23398;50.928;7.084;2022-09-03T11:52:01;1.40;;;1.30;;
37559;SDS011;23398;50.928;7.084;2022-09-03T11:54:41;2.47;;;1.27;;
37559;SDS011;23398;50.928;7.084;2022-09-03T11:57:10;1.30;;;1.20;;
37559;SDS011;23398;50.928;7.084;2022-09-03T11:59:38;1.42;;;1.20;;
37559;SDS011;23398;50.928;7.084;2022-09-03T12:02:23;2.05;;;1.20;;
37559;SDS011;23398;50.928;7.084;2022-09-03T12:08:00;3.05;;;1.27;;
37559;SDS011;23398;50.928;7.084;2022-09-03T12:10:43;1.38;;;1.20;;
37559;SDS011;23398;50.928;7.084;2022-09-03T12:18:48;1.58;;;1.23;;
37559;SDS011;23398;50.928;7.084;2022-09-03T12:21:17;1.65;;;1.55;;
37559;SDS011;23398;50.928;7.084;2022-09-03T12:23:44;1.40;;;1.30;;
37559;SDS011;23398;50.928;7.084;2022-09-03T12:26:19;1.80;;;1.48;;
37559;SDS011;23398;50.928;7.084;2022-09-03T12:28:57;1.90;;;1.42;;
37559;SDS011;23398;50.928;7.084;2022-09-03T12:31:27;1.60;;;1.48;;
37559;SDS011;23398;50.928;7.084;2022-09-03T12:36:40;2.30;;;1.40;;
37559;SDS011;23398;50.928;7.084;2022-09-03T12:44:28;2.20;;;1.40;;
37559;SDS011;23398;50.928;7.084;2022-09-03T12:49:35;1.63;;;1.52;;
37559;SDS011;23398;50.928;7.084;2022-09-03T12:52:05;1.40;;;1.30;;
37559;SDS011;23398;50.928;7.084;2022-09-03T12:54:52;2.13;;;1.60;;
37559;SDS011;23398;50.928;7.084;2022-09-03T12:57:32;2.40;;;1.30;;
37559;SDS011;23398;50.928;7.084;2022-09-03T13:00:06;1.50;;;1.40;;
37559;SDS011;23398;50.928;7.084;2022-09-03T13:02:36;1.40;;;1.30;;
37559;SDS011;23398;50.928;7.084;2022-09-03T13:05:10;1.40;;;1.30;;
37559;SDS011;23398;50.928;7.084;2022-09-03T13:07:42;2.00;;;1.40;;
37559;SDS011;23398;50.928;7.084;2022-09-03T13:10:19;2.13;;;1.80;;
37559;SDS011;23398;50.928;7.084;2022-09-03T13:12:56;2.10;;;1.60;;
37559;SDS011;23398;50.928;7.084;2022-09-03T13:15:27;1.45;;;1.35;;
37559;SDS011;23398;50.928;7.084;2022-09-03T13:18:10;2.65;;;1.55;;
37559;SDS011;23398;50.928;7.084;2022-09-03T13:20:53;2.00;;;1.80;;
37559;SDS011;23398;50.928;7.084;2022-09-03T13:23:28;1.65;;;1.50;;
37559;SDS011;23398;50.928;7.084;2022-09-03T13:31:09;2.75;;;1.40;;
37559;SDS011;23398;50.928;7.084;2022-09-03T13:34:30;1.88;;;1.45;;
37559;SDS011;23398;50.928;7.084;2022-09-03T13:37:11;2.90;;;1.63;;
37559;SDS011;23398;50.928;7.084;2022-09-03T13:40:08;2.00;;;1.48;;
37559;SDS011;23398;50.928;7.084;2022-09-03T13:42:44;1.83;;;1.50;;
37559;SDS011;23398;50.928;7.084;2022-09-03T13:45:30;1.80;;;1.70;;
37559;SDS011;23398;50.928;7.084;2022-09-03T13:48:11;1.80;;;1.63;;
37559;SDS011;23398;50.928;7.084;2022-09-03T13:53:57;1.70;;;1.60;;
37559;SDS011;23398;50.928;7.084;2022-09-03T13:59:12;1.60;;;1.50;;
37559;SDS011;23398;50.928;7.084;2022-09-03T14:02:05;1.55;;;1.45;;
37559;SDS011;23398;50.928;7.084;2022-09-03T14:10:18;1.50;;;1.40;;
37559;SDS011;23398;50.928;7.084;2022-09-03T14:12:53;2.90;;;1.50;;
37559;SDS011;23398;50.928;7.084;2022-09-03T14:15:31;1.52;;;1.42;;
37559;SDS011;23398;50.928;7.084;2022-09-03T14:18:22;1.58;;;1.45;;
37559;SDS011;23398;50.928;7.084;2022-09-03T14:20:56;1.60;;;1.50;;
37559;SDS011;23398;50.928;7.084;2022-09-03T14:23:35;1.48;;;1.38;;
37559;SDS011;23398;50.928;7.084;2022-09-03T14:26:15;1.95;;;1.50;;
37559;SDS011;23398;50.928;7.084;2022-09-03T14:28:47;2.30;;;1.48;;
37559;SDS011;23398;50.928;7.084;2022-09-03T14:37:04;1.50;;;1.40;;
37559;SDS011;23398;50.928;7.084;2022-09-03T14:39:53;3.22;;;2.20;;
37559;SDS011;23398;50.928;7.084;2022-09-03T14:42:44;1.48;;;1.38;;
37559;SDS011;23398;50.928;7.084;2022-09-03T14:45:52;1.45;;;1.35;;
37559;SDS011;23398;50.928;7.084;2022-09-03T14:50:47;1.33;;;1.23;;
37559;SDS011;23398;50.928;7.084;2022-09-03T14:53:35;1.33;;;1.23;;
37559;SDS011;23398;50.928;7.084;2022-09-03T14:56:10;2.00;;;1.42;;
37559;SDS011;23398;50.928;7.084;2022-09-03T15:01:36;1.98;;;1.20;;
37559;SDS011;23398;50.928;7.084;2022-09-03T15:10:11;3.05;;;1.50;;
37559;SDS011;23398;50.928;7.084;2022-09-03T15:12:43;1.52;;;1.42;;
37559;SDS011;23398;50.928;7.084;2022-09-03T15:20:48;1.40;;;1.30;;
37559;SDS011;23398;50.928;7.084;2022-09-03T15:36:46;1.50;;;1.40;;
37559;SDS011;23398;50.928;7.084;2022-09-03T15:39:19;1.55;;;1.45;;
37559;SDS011;23398;50.928;7.084;2022-09-03T15:41:54;3.33;;;1.35;;
37559;SDS011;23398;50.928;7.084;2022-09-03T15:44:23;1.40;;;1.30;;
37559;SDS011;23398;50.928;7.084;2022-09-03T15:46:53;1.50;;;1.40;;
37559;SDS011;23398;50.928;7.084;2022-09-03T15:49:26;1.65;;;1.50;;
37559;SDS011;23398;50.928;7.084;2022-09-03T16:00:56;1.50;;;1.40;;
37559;SDS011;23398;50.928;7.084;2022-09-03T16:06:15;1.30;;;1.20;;
37559;SDS011;23398;50.928;7.084;2022-09-03T16:08:54;1.63;;;1.50;;
37559;SDS011;23398;50.928;7.084;2022-09-03T16:11:37;2.65;;;1.40;;
37559;SDS011;23398;50.928;7.084;2022-09-03T16:14:14;5.85;;;1.40;;
37559;SDS011;23398;50.928;7.084;2022-09-03T16:22:50;1.20;;;1.10;;
37559;SDS011;23398;50.928;7.084;2022-09-03T16:33:32;3.22;;;1.42;;
37559;SDS011;23398;50.928;7.084;2022-09-03T16:47:06;1.20;;;1.10;;
37559;SDS011;23398;50.928;7.084;2022-09-03T16:52:14;1.70;;;1.60;;
37559;SDS011;23398;50.928;7.084;2022-09-03T16:57:24;1.90;;;1.40;;
37559;SDS011;23398;50.928;7.084;2022-09-03T17:00:13;2.33;;;1.30;;
37559;SDS011;23398;50.928;7.084;2022-09-03T17:08:23;2.75;;;1.33;;
37559;SDS011;23398;50.928;7.084;2022-09-03T17:16:25;2.13;;;1.40;;
37559;SDS011;23398;50.928;7.084;2022-09-03T17:19:03;1.83;;;1.40;;
37559;SDS011;23398;50.928;7.084;2022-09-03T17:21:50;2.25;;;1.23;;
37559;SDS011;23398;50.928;7.084;2022-09-03T17:37:58;2.25;;;1.48;;
37559;SDS011;23398;50.928;7.084;2022-09-03T17:49:25;2.30;;;1.60;;
37559;SDS011;23398;50.928;7.084;2022-09-03T17:51:58;2.00;;;1.55;;
37559;SDS011;23398;50.928;7.084;2022-09-03T17:54:41;2.28;;;1.30;;
37559;SDS011;23398;50.928;7.084;2022-09-03T18:07:50;1.58;;;1.33;;
37559;SDS011;23398;50.928;7.084;2022-09-03T18:16:25;1.80;;;1.50;;
37559;SDS011;23398;50.928;7.084;2022-09-03T18:19:01;1.83;;;1.30;;
37559;SDS011;23398;50.928;7.084;2022-09-03T18:21:34;1.30;;;1.10;;
37559;SDS011;23398;50.928;7.084;2022-09-03T18:24:34;1.40;;;1.30;;
37559;SDS011;23398;50.928;7.084;2022-09-03T18:27:39;1.30;;;1.17;;
37559;SDS011;23398;50.928;7.084;2022-09-03T18:30:29;1.58;;;1.40;;
37559;SDS011;23398;50.928;7.084;2022-09-03T18:33:18;1.88;;;1.30;;
37559;SDS011;23398;50.928;7.084;2022-09-03T18:36:07;1.30;;;1.20;;
37559;SDS011;23398;50.928;7.084;2022-09-03T18:38:51;1.42;;;1.20;;
37559;SDS011;23398;50.928;7.084;2022-09-03T18:42:02;1.20;;;1.10;;
37559;SDS011;23398;50.928;7.084;2022-09-03T18:45:13;1.35;;;1.20;;
37559;SDS011;23398;50.928;7.084;2022-09-03T18:51:20;1.30;;;1.20;;
37559;SDS011;23398;50.928;7.084;2022-09-03T18:55:08;1.45;;;1.20;;
37559;SDS011;23398;50.928;7.084;2022-09-03T18:57:54;1.20;;;1.10;;
37559;SDS011;23398;50.928;7.084;2022-09-03T19:01:04;1.73;;;1.40;;
37559;SDS011;23398;50.928;7.084;2022-09-03T19:10:41;2.05;;;1.27;;
37559;SDS011;23398;50.928;7.084;2022-09-03T19:13:35;2.03;;;1.30;;
37559;SDS011;23398;50.928;7.084;2022-09-03T19:22:37;1.77;;;1.48;;
37559;SDS011;23398;50.928;7.084;2022-09-03T19:25:24;1.55;;;1.38;;
37559;SDS011;23398;50.928;7.084;2022-09-03T19:28:18;1.77;;;1.60;;
37559;SDS011;23398;50.928;7.084;2022-09-03T19:37:00;1.70;;;1.60;;
37559;SDS011;23398;50.928;7.084;2022-09-03T19:43:17;1.70;;;1.60;;
37559;SDS011;23398;50.928;7.084;2022-09-03T19:55:06;1.88;;;1.50;;
37559;SDS011;23398;50.928;7.084;2022-09-03T19:57:53;2.90;;;2.28;;
37559;SDS011;23398;50.928;7.084;2022-09-03T20:00:41;4.72;;;2.33;;
37559;SDS011;23398;50.928;7.084;2022-09-03T20:03:26;2.95;;;1.90;;
37559;SDS011;23398;50.928;7.084;2022-09-03T20:06:11;2.30;;;2.10;;
37559;SDS011;23398;50.928;7.084;2022-09-03T20:09:01;2.40;;;1.95;;
37559;SDS011;23398;50.928;7.084;2022-09-03T20:11:53;2.33;;;1.50;;
37559;SDS011;23398;50.928;7.084;2022-09-03T20:14:22;2.28;;;1.80;;
37559;SDS011;23398;50.928;7.084;2022-09-03T20:19:46;1.55;;;1.40;;
37559;SDS011;23398;50.928;7.084;2022-09-03T20:27:29;2.20;;;1.80;;
37559;SDS011;23398;50.928;7.084;2022-09-03T20:30:19;2.10;;;1.85;;
37559;SDS011;23398;50.928;7.084;2022-09-03T20:43:41;1.67;;;1.55;;
37559;SDS011;23398;50.928;7.084;2022-09-03T20:50:01;2.25;;;1.70;;
37559;SDS011;23398;50.928;7.084;2022-09-03T20:52:16;1.88;;;1.60;;
37559;SDS011;23398;50.928;7.084;2022-09-03T21:05:31;2.08;;;1.60;;
37559;SDS011;23398;50.928;7.084;2022-09-03T21:08:05;2.08;;;1.80;;
37559;SDS011;23398;50.928;7.084;2022-09-03T21:10:41;1.83;;;1.70;;
37559;SDS011;23398;50.928;7.084;2022-09-03T21:13:20;2.20;;;1.60;;
37559;SDS011;23398;50.928;7.084;2022-09-03T21:24:22;1.85;;;1.60;;
37559;SDS011;23398;50.928;7.084;2022-09-03T21:27:15;4.35;;;3.40;;